createdAt,value
2023-02-19T00:01:55.899Z,16.4
2023-02-19T00:06:55.858Z,16.4
2023-02-19T00:11:55.855Z,16.4
2023-02-19T00:16:56.022Z,16.4
2023-02-19T00:21:55.896Z,16.4
2023-02-19T00:26:55.908Z,16.3
2023-02-19T00:31:56.018Z,16.3
2023-02-19T00:36:55.889Z,16.3
2023-02-19T00:41:56.066Z,16.3
2023-02-19T00:46:55.938Z,16.3
2023-02-19T00:51:55.899Z,16.4
2023-02-19T00:56:55.894Z,16.4
2023-02-19T01:01:55.935Z,16.4
2023-02-19T01:06:55.900Z,16.4
2023-02-19T01:11:56.051Z,16.5
2023-02-19T01:16:55.973Z,16.5
2023-02-19T01:21:56.009Z,16.5
2023-02-19T01:26:56.198Z,16.6
2023-02-19T01:31:56.042Z,16.6
2023-02-19T01:36:55.955Z,16.6
2023-02-19T01:41:56.275Z,16.6
2023-02-19T01:46:56.028Z,16.6
2023-02-19T01:51:56.005Z,16.6
2023-02-19T01:56:55.993Z,16.6
2023-02-19T02:01:56.060Z,16.6
2023-02-19T02:06:56.026Z,16.6
2023-02-19T02:11:56.089Z,16.6
2023-02-19T02:16:56.024Z,16.6
2023-02-19T02:21:56.104Z,16.6
2023-02-19T02:26:56.049Z,16.6
2023-02-19T02:31:56.115Z,16.6
2023-02-19T02:36:56.320Z,16.6
2023-02-19T02:41:56.034Z,16.6
2023-02-19T02:46:56.056Z,16.6
2023-02-19T02:51:56.067Z,16.6
2023-02-19T02:56:56.086Z,16.5
2023-02-19T03:01:56.372Z,16.5
2023-02-19T03:06:56.111Z,16.5
2023-02-19T03:11:56.095Z,16.4
2023-02-19T03:16:56.188Z,16.4
2023-02-19T03:21:57.011Z,16.4
2023-02-19T03:26:56.492Z,16.4
2023-02-19T03:31:56.432Z,16.3
2023-02-19T03:36:56.348Z,16.3
2023-02-19T03:41:56.573Z,16.2
2023-02-19T03:46:56.347Z,16.1
2023-02-19T03:51:56.344Z,16.1
2023-02-19T03:56:56.357Z,16
2023-02-19T04:01:56.488Z,15.9
2023-02-19T04:06:56.355Z,15.8
2023-02-19T04:11:56.368Z,15.8
2023-02-19T04:16:56.695Z,15.6
2023-02-19T04:21:56.499Z,15.6
2023-02-19T04:26:56.692Z,15.6
2023-02-19T04:31:56.774Z,15.5
2023-02-19T04:36:56.729Z,15.5
2023-02-19T04:41:56.649Z,15.4
2023-02-19T04:49:12.458Z,15.3
2023-02-19T04:54:12.396Z,15.3
2023-02-19T04:59:12.348Z,15.3
2023-02-19T05:04:12.429Z,15.2
2023-02-19T05:09:12.303Z,15.2
2023-02-19T05:14:12.307Z,15.2
2023-02-19T05:19:12.884Z,15.2
2023-02-19T05:24:12.347Z,15.2
2023-02-19T05:29:12.304Z,15.2
2023-02-19T05:34:12.339Z,15.1
2023-02-19T05:39:12.351Z,15.1
2023-02-19T05:44:12.365Z,15.1
2023-02-19T05:49:12.311Z,15.1
2023-02-19T05:54:12.328Z,15.1
2023-02-19T05:59:12.312Z,15
2023-02-19T06:04:12.350Z,15
2023-02-19T06:09:12.313Z,14.9
2023-02-19T06:14:12.321Z,14.9
2023-02-19T06:19:12.475Z,14.8
2023-02-19T06:24:12.480Z,14.7
2023-02-19T06:29:12.347Z,14.6
2023-02-19T06:34:12.364Z,14.6
2023-02-19T06:39:12.344Z,14.5
2023-02-19T06:44:12.385Z,14.4
2023-02-19T06:49:12.349Z,14.4
2023-02-19T06:54:12.347Z,14.3
2023-02-19T06:59:12.352Z,14.1
2023-02-19T07:04:12.382Z,14
2023-02-19T07:09:12.325Z,13.8
2023-02-19T07:14:12.336Z,13.7
2023-02-19T07:19:12.488Z,13.6
2023-02-19T07:24:12.331Z,13.5
2023-02-19T07:29:12.325Z,13.4
2023-02-19T07:34:12.336Z,13.4
2023-02-19T07:39:12.333Z,13.3
2023-02-19T07:44:12.509Z,13.3
2023-02-19T07:49:12.337Z,13.3
2023-02-19T07:54:12.313Z,13.2
2023-02-19T07:59:12.323Z,13.2
2023-02-19T08:04:12.319Z,13.2
2023-02-19T08:09:12.315Z,13.1
2023-02-19T08:14:12.329Z,13.2
2023-02-19T08:19:12.699Z,13.2
2023-02-19T08:24:12.333Z,13.2
2023-02-19T08:29:12.325Z,13.3
2023-02-19T08:34:12.324Z,13.3
2023-02-19T08:39:12.337Z,13.3
2023-02-19T08:44:12.359Z,13.4
2023-02-19T08:49:12.330Z,13.4
2023-02-19T08:54:12.307Z,13.5
2023-02-19T08:59:12.311Z,13.6
2023-02-19T09:04:12.377Z,13.6
2023-02-19T09:09:12.319Z,13.7
2023-02-19T09:14:12.330Z,13.8
2023-02-19T09:19:12.317Z,13.9
2023-02-19T09:24:12.309Z,13.9
2023-02-19T09:29:12.332Z,14
2023-02-19T09:34:12.335Z,14.1
2023-02-19T09:39:12.300Z,14.1
2023-02-19T09:44:12.358Z,14.2
2023-02-19T09:49:12.350Z,14.3
2023-02-19T09:54:12.337Z,14.4
2023-02-19T09:59:12.398Z,14.6
2023-02-19T10:04:12.327Z,14.7
2023-02-19T10:09:12.322Z,14.8
2023-02-19T10:14:12.324Z,14.9
2023-02-19T10:19:12.353Z,14.9
2023-02-19T10:24:12.346Z,14.9
2023-02-19T10:29:12.340Z,15.2
2023-02-19T10:34:12.336Z,15.3
2023-02-19T10:39:12.333Z,15.4
2023-02-19T10:44:12.356Z,15.4
2023-02-19T10:49:12.332Z,15.5
2023-02-19T10:54:12.340Z,15.6
2023-02-19T10:59:12.328Z,15.7
2023-02-19T11:04:12.387Z,15.8
2023-02-19T11:09:12.321Z,16
2023-02-19T11:14:12.326Z,16.1
2023-02-19T11:19:12.320Z,16.2
2023-02-19T11:24:12.479Z,16.3
2023-02-19T11:29:12.335Z,16.4
2023-02-19T11:34:12.330Z,16.4
2023-02-19T11:39:12.328Z,16.6
2023-02-19T11:44:12.371Z,16.7
2023-02-19T11:49:12.367Z,16.8
2023-02-19T11:54:12.409Z,16.9
2023-02-19T11:59:12.352Z,16.9
2023-02-19T12:04:12.435Z,16.9
2023-02-19T12:09:12.345Z,17
2023-02-19T12:14:12.352Z,17
2023-02-19T12:19:12.334Z,17.1
2023-02-19T12:24:12.403Z,17.1
2023-02-19T12:29:12.353Z,17.3
2023-02-19T12:34:12.349Z,17.4
2023-02-19T12:39:12.401Z,17.4
2023-02-19T12:44:12.528Z,17.6
2023-02-19T12:49:12.422Z,17.6
2023-02-19T12:54:12.425Z,17.8
2023-02-19T12:59:12.415Z,17.8
2023-02-19T13:04:12.433Z,17.9
2023-02-19T13:09:12.419Z,17.9
2023-02-19T13:14:12.428Z,17.9
2023-02-19T13:19:12.418Z,18
2023-02-19T13:24:12.467Z,18.1
2023-02-19T13:29:12.422Z,18.2
2023-02-19T13:34:12.476Z,18.2
2023-02-19T13:39:12.417Z,18.2
2023-02-19T13:44:12.463Z,18.2
2023-02-19T13:49:12.409Z,18.3
2023-02-19T13:54:12.437Z,18.3
2023-02-19T13:59:12.446Z,18.3
2023-02-19T14:04:12.419Z,18.4
2023-02-19T14:09:12.419Z,18.3
2023-02-19T14:14:12.419Z,18.2
2023-02-19T14:19:12.423Z,18.2
2023-02-19T14:24:12.416Z,18.1
2023-02-19T14:29:12.397Z,18
2023-02-19T14:34:12.500Z,17.9
2023-02-19T14:39:12.396Z,20.6
2023-02-19T14:44:12.441Z,20.7
2023-02-19T14:49:12.410Z,19.9
2023-02-19T14:54:14.645Z,19.5
2023-02-19T14:59:12.392Z,19.2
2023-02-19T15:04:12.380Z,18.9
2023-02-19T15:09:12.409Z,18.9
2023-02-19T15:14:12.405Z,18.4
2023-02-19T15:19:12.402Z,18.3
2023-02-19T15:24:12.398Z,18.1
2023-02-19T15:29:12.380Z,17.9
2023-02-19T15:34:12.401Z,17.9
2023-02-19T15:39:12.387Z,17.9
2023-02-19T15:44:12.398Z,24.4
2023-02-19T15:49:12.456Z,22.6
2023-02-19T15:54:12.396Z,22.6
2023-02-19T15:59:12.377Z,22.6
2023-02-19T16:04:12.531Z,22.6
2023-02-19T16:09:12.388Z,22.1
2023-02-19T16:14:12.392Z,21.4
2023-02-19T16:19:12.401Z,20.8
2023-02-19T16:24:12.405Z,20.8
2023-02-19T16:29:12.421Z,20.3
2023-02-19T16:34:12.386Z,19.8
2023-02-19T16:39:12.379Z,19.5
2023-02-19T16:44:12.414Z,19.2
2023-02-19T16:49:12.390Z,18.9
2023-02-19T16:54:12.400Z,18.7
2023-02-19T16:59:12.401Z,18.4
2023-02-19T17:04:12.831Z,18.1
2023-02-19T17:09:12.405Z,18.1
2023-02-19T17:14:12.390Z,18.1
2023-02-19T17:19:12.396Z,18.1
2023-02-19T17:24:12.531Z,21.3
2023-02-19T17:29:12.463Z,23.4
2023-02-19T17:34:12.412Z,22.1
2023-02-19T17:39:12.415Z,21.1
2023-02-19T17:44:12.415Z,20.3
2023-02-19T17:49:12.430Z,19.6
2023-02-19T17:54:12.409Z,19
2023-02-19T17:59:12.397Z,18.5
2023-02-19T18:04:12.465Z,18.1
2023-02-19T18:09:12.401Z,17.6
2023-02-19T18:14:12.421Z,17.3
2023-02-19T18:19:12.421Z,17.1
2023-02-19T18:24:12.430Z,16.8
2023-02-19T18:29:12.466Z,16.5
2023-02-19T18:34:12.442Z,16.3
2023-02-19T18:39:12.408Z,16.1
2023-02-19T18:44:12.469Z,16
2023-02-19T18:49:12.426Z,17.6
2023-02-19T18:54:12.422Z,16.9
2023-02-19T18:59:12.415Z,16.6
2023-02-19T19:04:12.584Z,17
2023-02-19T19:09:12.434Z,20.1
2023-02-19T19:14:12.443Z,18.6
2023-02-19T19:19:12.441Z,18.1
2023-02-19T19:24:12.433Z,19.7
2023-02-19T19:29:12.595Z,18.6
2023-02-19T19:34:12.461Z,18
2023-02-19T19:39:12.433Z,17.5
2023-02-19T19:44:12.470Z,17.1
2023-02-19T19:49:12.454Z,16.8
2023-02-19T19:54:12.452Z,16.6
2023-02-19T19:59:12.443Z,16.4
2023-02-19T20:04:12.465Z,16.2
2023-02-19T20:09:12.452Z,16
2023-02-19T20:14:12.478Z,17.4
2023-02-19T20:19:12.484Z,16.7
2023-02-19T20:24:12.464Z,17.8
2023-02-19T20:29:12.649Z,19.4
2023-02-19T20:34:12.435Z,21.3
2023-02-19T20:39:12.488Z,19.9
2023-02-19T20:44:12.505Z,20.6
2023-02-19T20:49:12.453Z,20.9
2023-02-19T20:54:12.476Z,20.3
2023-02-19T20:59:12.456Z,19.6
2023-02-19T21:04:12.634Z,18.9
2023-02-19T21:09:12.521Z,18.2
2023-02-19T21:14:12.488Z,17.6
2023-02-19T21:19:12.521Z,16.9
2023-02-19T21:24:12.623Z,16.3
2023-02-19T21:29:12.703Z,15.8
2023-02-19T21:34:12.554Z,15.2
2023-02-19T21:39:12.556Z,14.7
2023-02-19T21:44:12.573Z,14.3
2023-02-19T21:49:12.520Z,13.8
2023-02-19T21:54:12.544Z,13.4
2023-02-19T21:59:12.538Z,12.9
2023-02-19T22:04:12.550Z,12.6
2023-02-19T22:09:12.545Z,12.2
2023-02-19T22:14:12.542Z,11.9
2023-02-19T22:19:12.522Z,11.6
2023-02-19T22:24:12.552Z,11.3
2023-02-19T22:29:12.524Z,11
2023-02-19T22:34:12.543Z,10.7
2023-02-19T22:39:12.530Z,10.4
2023-02-19T22:44:12.549Z,10.2
2023-02-19T22:49:12.535Z,9.9
2023-02-19T22:54:12.528Z,9.8
2023-02-19T22:59:12.529Z,9.5
2023-02-19T23:04:12.595Z,9.3
2023-02-19T23:09:12.537Z,9.1
2023-02-19T23:14:12.701Z,8.9
2023-02-19T23:19:12.594Z,8.8
2023-02-19T23:24:12.583Z,8.6
2023-02-19T23:29:12.549Z,8.4
2023-02-19T23:34:12.736Z,8.3
2023-02-19T23:39:12.565Z,8.1
2023-02-19T23:44:12.568Z,7.9
2023-02-19T23:49:12.805Z,7.8
2023-02-19T23:54:12.572Z,7.7
2023-02-19T23:59:12.589Z,7.6
